createdAt,value
2023-03-08T00:01:02.132Z,31.55
2023-03-08T00:02:10.351Z,30.48
2023-03-08T00:03:25.759Z,29.67
2023-03-08T00:04:32.254Z,31.60
2023-03-08T00:05:41.762Z,30.15
2023-03-08T00:06:50.070Z,28.13
2023-03-08T00:07:55.972Z,28.38
2023-03-08T00:09:09.370Z,28.35
2023-03-08T00:10:23.015Z,29.40
2023-03-08T00:11:29.322Z,29.13
2023-03-08T00:12:37.707Z,29.27
2023-03-08T00:13:42.025Z,31.55
2023-03-08T00:14:52.203Z,32.20
2023-03-08T00:16:03.118Z,31.45
2023-03-08T00:17:08.156Z,30.95
2023-03-08T00:18:11.638Z,33.05
2023-03-08T00:19:20.831Z,30.85
2023-03-08T00:20:30.419Z,30.40
2023-03-08T00:21:34.491Z,31.33
2023-03-08T00:22:42.647Z,29.58
2023-03-08T00:23:50.563Z,29.67
2023-03-08T00:25:06.331Z,31.02
2023-03-08T00:26:24.233Z,30.02
2023-03-08T00:27:32.928Z,27.33
2023-03-08T00:28:38.915Z,25.63
2023-03-08T00:29:46.431Z,26.58
2023-03-08T00:31:02.943Z,26.45
2023-03-08T00:32:11.001Z,27.00
2023-03-08T00:33:20.866Z,26.75
2023-03-08T00:34:25.935Z,27.65
2023-03-08T00:35:31.706Z,28.25
2023-03-08T00:36:38.044Z,28.50
2023-03-08T00:38:09.567Z,26.20
2023-03-08T00:39:16.551Z,25.88
2023-03-08T00:40:20.728Z,26.17
2023-03-08T00:41:25.204Z,27.77
2023-03-08T00:44:28.419Z,24.20
2023-03-08T00:45:43.893Z,26.02
2023-03-08T00:46:49.318Z,24.67
2023-03-08T00:47:57.402Z,24.17
2023-03-08T00:49:06.882Z,24.65
2023-03-08T00:50:17.127Z,23.58
2023-03-08T00:51:28.342Z,24.15
2023-03-08T00:52:34.419Z,24.58
2023-03-08T00:53:42.081Z,23.25
2023-03-08T00:54:54.598Z,24.08
2023-03-08T00:56:00.398Z,23.80
2023-03-08T00:57:07.834Z,22.88
2023-03-08T00:58:17.778Z,24.10
2023-03-08T00:59:25.824Z,24.60
2023-03-08T01:00:38.961Z,23.77
2023-03-08T01:01:43.522Z,25.65
2023-03-08T01:02:49.974Z,26.13
2023-03-08T01:03:56.133Z,24.20
2023-03-08T01:05:04.949Z,25.65
2023-03-08T01:06:16.079Z,25.55
2023-03-08T01:07:31.039Z,25.15
2023-03-08T01:08:43.288Z,23.55
2023-03-08T01:10:59.686Z,24.02
2023-03-08T01:12:07.392Z,23.38
2023-03-08T01:13:21.565Z,25.83
2023-03-08T01:14:26.377Z,25.08
2023-03-08T01:15:43.016Z,24.50
2023-03-08T01:16:49.831Z,25.10
2023-03-08T01:17:54.459Z,24.42
2023-03-08T01:19:00.998Z,26.50
2023-03-08T01:20:13.104Z,25.13
2023-03-08T01:21:22.916Z,25.10
2023-03-08T01:22:34.223Z,25.58
2023-03-08T01:23:42.465Z,25.35
2023-03-08T01:24:50.087Z,24.23
2023-03-08T01:26:05.349Z,26.10
2023-03-08T01:27:11.531Z,26.35
2023-03-08T01:28:18.577Z,25.55
2023-03-08T01:29:27.270Z,25.05
2023-03-08T01:30:36.482Z,25.95
2023-03-08T01:31:43.381Z,24.85
2023-03-08T01:32:55.304Z,26.52
2023-03-08T01:34:00.699Z,26.13
2023-03-08T01:36:38.006Z,25.85
2023-03-08T01:37:45.285Z,26.05
2023-03-08T01:38:50.519Z,25.98
2023-03-08T01:40:06.337Z,25.05
2023-03-08T01:41:19.372Z,25.88
2023-03-08T01:42:30.836Z,25.02
2023-03-08T01:43:45.120Z,24.55
2023-03-08T01:45:00.534Z,25.10
2023-03-08T01:46:49.817Z,25.25
2023-03-08T01:48:13.742Z,23.70
2023-03-08T01:49:40.531Z,23.58
2023-03-08T01:50:54.202Z,25.52
2023-03-08T01:53:18.162Z,24.00
2023-03-08T01:55:43.047Z,24.15
2023-03-08T01:58:10.183Z,25.10
2023-03-08T01:59:17.312Z,24.88
2023-03-08T02:00:28.723Z,26.20
2023-03-08T02:01:37.172Z,24.52
2023-03-08T02:02:50.951Z,24.02
2023-03-08T02:03:56.474Z,25.75
2023-03-08T02:05:01.739Z,24.83
2023-03-08T02:06:32.170Z,25.00
2023-03-08T02:07:38.879Z,25.83
2023-03-08T02:08:44.827Z,26.58
2023-03-08T02:09:49.566Z,25.98
2023-03-08T02:10:55.214Z,27.05
2023-03-08T02:12:18.736Z,27.50
2023-03-08T02:13:27.227Z,26.33
2023-03-08T02:14:32.973Z,27.70
2023-03-08T02:15:36.913Z,27.13
2023-03-08T02:16:41.710Z,27.52
2023-03-08T02:17:49.548Z,28.75
2023-03-08T02:19:07.775Z,28.73
2023-03-08T02:20:33.213Z,28.63
2023-03-08T02:21:48.158Z,28.05
2023-03-08T02:24:23.078Z,28.48
2023-03-08T02:25:34.285Z,30.08
2023-03-08T02:26:39.905Z,30.88
2023-03-08T02:27:46.212Z,31.00
2023-03-08T02:28:58.404Z,30.60
2023-03-08T02:30:14.805Z,32.33
2023-03-08T02:32:44.316Z,32.40
2023-03-08T02:33:49.866Z,32.72
2023-03-08T02:34:54.773Z,33.47
2023-03-08T02:36:02.512Z,35.25
2023-03-08T02:37:06.644Z,36.38
2023-03-08T02:39:02.294Z,37.95
2023-03-08T02:40:09.938Z,36.50
2023-03-08T02:41:20.516Z,39.45
2023-03-08T02:42:23.866Z,38.95
2023-03-08T02:43:33.043Z,38.25
2023-03-08T02:44:36.586Z,40.67
2023-03-08T02:45:43.891Z,40.40
2023-03-08T02:46:47.305Z,41.08
2023-03-08T02:47:53.084Z,44.85
2023-03-08T02:48:59.070Z,42.70
2023-03-08T02:50:05.967Z,45.03
2023-03-08T02:51:13.637Z,48.22
2023-03-08T02:52:19.166Z,51.33
2023-03-08T02:53:24.117Z,50.88
2023-03-08T02:54:28.517Z,56.13
2023-03-08T02:55:34.433Z,55.63
2023-03-08T02:56:47.763Z,53.45
2023-03-08T02:57:54.113Z,58.33
2023-03-08T02:58:59.187Z,57.60
2023-03-08T03:00:07.622Z,60.38
2023-03-08T03:01:16.229Z,59.97
2023-03-08T03:02:24.896Z,58.53
2023-03-08T03:03:33.583Z,61.55
2023-03-08T03:04:49.005Z,63.45
2023-03-08T03:06:00.322Z,65.57
2023-03-08T03:07:15.473Z,64.93
2023-03-08T03:08:20.907Z,57.97
2023-03-08T03:09:51.021Z,57.97
2023-03-08T03:10:56.705Z,57.38
2023-03-08T03:12:07.362Z,52.90
2023-03-08T03:13:20.959Z,52.05
2023-03-08T03:14:32.049Z,55.78
2023-03-08T03:15:40.096Z,56.22
2023-03-08T03:16:48.692Z,56.45
2023-03-08T03:17:55.238Z,53.35
2023-03-08T03:19:07.463Z,53.30
2023-03-08T03:21:19.793Z,48.75
2023-03-08T03:22:25.343Z,52.90
2023-03-08T03:23:30.590Z,51.30
2023-03-08T03:24:37.554Z,50.42
2023-03-08T03:25:45.760Z,51.40
2023-03-08T03:26:53.454Z,45.05
2023-03-08T03:27:59.701Z,44.13
2023-03-08T03:29:09.721Z,44.45
2023-03-08T03:30:18.308Z,43.47
2023-03-08T03:31:29.562Z,41.88
2023-03-08T03:33:56.268Z,40.83
2023-03-08T03:35:06.175Z,39.63
2023-03-08T03:36:20.388Z,36.22
2023-03-08T03:37:28.176Z,36.95
2023-03-08T03:38:37.097Z,34.03
2023-03-08T03:39:43.850Z,34.78
2023-03-08T03:41:00.450Z,33.72
2023-03-08T03:42:05.094Z,31.77
2023-03-08T03:43:13.755Z,30.83
2023-03-08T03:44:17.758Z,31.15
2023-03-08T03:45:26.800Z,31.00
2023-03-08T03:46:34.263Z,31.30
2023-03-08T03:48:55.348Z,29.58
2023-03-08T03:50:04.388Z,30.10
2023-03-08T03:51:26.469Z,28.58
2023-03-08T03:52:51.495Z,28.23
2023-03-08T03:53:56.855Z,29.63
2023-03-08T03:55:04.100Z,28.52
2023-03-08T03:56:35.366Z,27.50
2023-03-08T03:57:49.732Z,29.33
2023-03-08T03:58:58.113Z,27.83
2023-03-08T04:00:09.311Z,31.33
2023-03-08T04:01:28.382Z,29.55
2023-03-08T04:02:45.317Z,28.98
2023-03-08T04:04:01.938Z,28.80
2023-03-08T04:05:16.271Z,29.38
2023-03-08T04:06:32.754Z,28.42
2023-03-08T04:07:39.558Z,28.10
2023-03-08T04:08:44.461Z,32.55
2023-03-08T04:09:53.633Z,34.15
2023-03-08T04:11:29.415Z,34.75
2023-03-08T04:12:33.993Z,39.80
2023-03-08T04:13:55.503Z,40.83
2023-03-08T04:15:02.619Z,41.67
2023-03-08T04:16:15.415Z,43.22
2023-03-08T04:17:28.164Z,43.90
2023-03-08T04:18:35.717Z,42.95
2023-03-08T04:19:41.615Z,43.90
2023-03-08T04:20:54.213Z,44.17
2023-03-08T04:22:05.263Z,42.10
2023-03-08T04:23:18.049Z,42.35
2023-03-08T04:24:49.538Z,38.83
2023-03-08T04:26:02.684Z,38.33
2023-03-08T04:27:12.547Z,39.97
2023-03-08T04:29:24.349Z,39.85
2023-03-08T04:30:31.219Z,45.72
2023-03-08T04:31:40.259Z,41.53
2023-03-08T04:32:49.003Z,40.90
2023-03-08T04:33:54.809Z,42.95
2023-03-08T04:35:08.019Z,45.05
2023-03-08T04:36:17.309Z,44.25
2023-03-08T04:37:23.276Z,44.08
2023-03-08T04:38:37.600Z,47.10
2023-03-08T04:39:46.750Z,45.85
2023-03-08T04:41:05.584Z,43.88
2023-03-08T04:42:37.105Z,45.35
2023-03-08T04:43:57.464Z,43.33
2023-03-08T04:45:21.397Z,44.35
2023-03-08T04:46:29.357Z,46.85
2023-03-08T04:47:40.157Z,46.33
2023-03-08T04:48:54.474Z,47.10
2023-03-08T04:50:01.087Z,46.83
2023-03-08T04:51:12.414Z,49.72
2023-03-08T04:52:17.010Z,55.53
2023-03-08T04:53:24.142Z,47.92
2023-03-08T04:54:31.041Z,47.30
2023-03-08T04:55:42.271Z,49.08
2023-03-08T04:56:59.322Z,46.05
2023-03-08T04:58:09.976Z,46.28
2023-03-08T04:59:25.141Z,46.60
2023-03-08T05:00:38.366Z,46.17
2023-03-08T05:01:45.307Z,44.47
2023-03-08T05:02:51.157Z,45.15
2023-03-08T05:04:01.840Z,44.30
2023-03-08T05:05:17.041Z,44.45
2023-03-08T05:06:40.066Z,41.40
2023-03-08T05:08:15.490Z,39.42
2023-03-08T05:09:26.052Z,38.55
2023-03-08T05:10:36.047Z,36.03
2023-03-08T05:11:41.666Z,39.50
2023-03-08T05:14:31.543Z,36.00
2023-03-08T05:16:03.222Z,35.78
2023-03-08T05:17:16.856Z,35.05
2023-03-08T05:18:25.497Z,34.53
2023-03-08T05:19:30.008Z,34.55
2023-03-08T05:20:43.464Z,37.88
2023-03-08T05:21:49.554Z,33.78
2023-03-08T05:23:15.553Z,36.85
2023-03-08T05:24:28.904Z,32.78
2023-03-08T05:25:48.344Z,31.13
2023-03-08T05:26:54.299Z,30.58
2023-03-08T05:28:03.632Z,31.88
2023-03-08T05:29:09.306Z,32.28
2023-03-08T05:30:17.412Z,32.33
2023-03-08T05:31:26.914Z,33.03
2023-03-08T05:32:46.868Z,31.38
2023-03-08T05:33:57.374Z,30.42
2023-03-08T05:35:20.593Z,31.40
2023-03-08T05:36:26.964Z,30.58
2023-03-08T05:37:38.200Z,32.13
2023-03-08T05:38:43.429Z,33.47
2023-03-08T05:39:50.763Z,32.75
2023-03-08T05:42:35.450Z,34.97
2023-03-08T05:43:42.124Z,36.90
2023-03-08T05:45:02.786Z,38.88
2023-03-08T05:46:19.568Z,37.15
2023-03-08T05:47:32.583Z,36.28
2023-03-08T05:48:42.530Z,37.70
2023-03-08T05:49:58.189Z,35.97
2023-03-08T05:51:19.358Z,36.78
2023-03-08T05:52:46.106Z,31.10
2023-03-08T05:54:05.267Z,33.58
2023-03-08T05:55:24.729Z,34.40
2023-03-08T05:56:30.738Z,31.40
2023-03-08T05:57:43.924Z,35.13
2023-03-08T06:00:22.061Z,31.00
2023-03-08T06:01:33.409Z,28.42
2023-03-08T06:03:07.988Z,29.58
2023-03-08T06:04:15.425Z,26.83
2023-03-08T06:06:50.395Z,28.90
2023-03-08T06:08:06.791Z,26.52
2023-03-08T06:09:14.270Z,24.92
2023-03-08T06:10:21.566Z,37.22
2023-03-08T06:11:33.843Z,26.23
2023-03-08T06:12:52.713Z,24.48
2023-03-08T06:14:27.580Z,23.48
2023-03-08T06:15:40.594Z,23.27
2023-03-08T06:16:50.229Z,22.73
2023-03-08T06:17:59.040Z,24.02
2023-03-08T06:20:23.995Z,23.15
2023-03-08T06:21:53.100Z,25.45
2023-03-08T06:23:03.152Z,25.00
2023-03-08T06:24:14.182Z,25.17
2023-03-08T06:25:28.539Z,24.05
2023-03-08T06:26:42.024Z,25.10
2023-03-08T06:27:51.593Z,26.40
2023-03-08T06:29:21.117Z,23.08
2023-03-08T06:30:45.949Z,25.23
2023-03-08T06:32:20.635Z,24.90
2023-03-08T06:33:40.458Z,25.27
2023-03-08T06:34:56.864Z,23.45
2023-03-08T06:36:17.841Z,23.98
2023-03-08T06:38:01.221Z,22.02
2023-03-08T06:39:24.110Z,19.83
2023-03-08T06:40:42.758Z,19.65
2023-03-08T06:41:49.677Z,17.55
2023-03-08T06:43:02.138Z,16.88
2023-03-08T06:44:23.553Z,17.30
2023-03-08T06:46:21.080Z,16.98
2023-03-08T06:47:34.291Z,17.13
2023-03-08T06:49:23.211Z,16.20
2023-03-08T06:50:32.861Z,18.48
2023-03-08T06:51:45.816Z,17.30
2023-03-08T06:55:15.384Z,17.17
2023-03-08T06:56:26.709Z,17.92
2023-03-08T07:04:29.769Z,14.63
2023-03-08T07:06:14.760Z,15.10
2023-03-08T07:20:38.598Z,12.77
2023-03-08T07:22:03.077Z,13.77
2023-03-08T07:23:45.362Z,13.43
2023-03-08T07:25:07.862Z,14.65
2023-03-08T07:29:08.051Z,13.02
2023-03-08T07:33:30.007Z,11.20
2023-03-08T07:34:58.580Z,11.50
2023-03-08T07:38:17.599Z,11.27
2023-03-08T07:39:59.088Z,11.75
2023-03-08T07:41:35.361Z,11.98
2023-03-08T07:43:10.386Z,11.18
2023-03-08T07:46:29.003Z,11.57
2023-03-08T07:49:21.224Z,13.68
2023-03-08T07:51:32.668Z,12.65
2023-03-08T07:52:54.471Z,13.18
2023-03-08T07:54:30.887Z,14.32
2023-03-08T07:55:54.120Z,11.82
2023-03-08T07:57:36.452Z,11.93
2023-03-08T07:58:48.684Z,11.02
2023-03-08T08:00:23.096Z,9.10
2023-03-08T08:01:59.277Z,9.70
2023-03-08T08:03:25.291Z,9.55
2023-03-08T08:04:39.642Z,9.07
2023-03-08T08:08:20.593Z,8.55
2023-03-08T08:09:47.785Z,9.10
2023-03-08T08:13:24.840Z,8.93
2023-03-08T08:15:10.663Z,9.90
2023-03-08T09:07:25.711Z,8.75
2023-03-08T09:08:49.349Z,9.48
2023-03-08T09:10:33.923Z,8.52
2023-03-08T09:11:55.492Z,12.80
2023-03-08T11:40:22.154Z,15.77
2023-03-08T11:42:14.323Z,16.25
2023-03-08T11:47:17.101Z,15.60
2023-03-08T12:43:03.456Z,17.58
2023-03-08T13:09:44.625Z,16.35
2023-03-08T13:19:36.940Z,16.50
2023-03-08T13:25:26.097Z,16.40
2023-03-08T13:42:23.250Z,16.38
